Time;durP1;ratioP1;P1;durP2;ratioP2;P2;SDS_P1;SDS_P2;PMS_P1;PMS_P2;Temp;Humidity;BMP_temperature;BMP_pressure;BME280_temperature;BME280_humidity;BME280_pressure;Samples;Min_cycle;Max_cycle;Signal;HPM_P1;HPM_P2
2022/09/23 00:01:37;;;;;;;;;;;13.20;99.90;;;;;;4941974;29;20008;-92
2022/09/23 00:04:03;;;;;;;;;;;13.10;99.90;;;;;;4951326;29;19913;-90
2022/09/23 00:06:30;;;;;;;;;;;13.10;99.90;;;;;;4947684;29;19921;-92
2022/09/23 00:08:56;;;;;;;;;;;13.10;99.90;;;;;;4952118;28;20373;-91
2022/09/23 00:11:23;;;;;;;;;;;13.10;99.90;;;;;;4954413;29;19906;-90
2022/09/23 00:13:50;;;;;;;;;;;13.10;99.90;;;;;;4939032;29;19911;-92
2022/09/23 00:16:17;;;;;;;;;;;13.00;99.90;;;;;;4944539;28;19933;-91
2022/09/23 00:18:42;;;;;;;;;;;13.00;99.90;;;;;;4954302;29;19953;-90
2022/09/23 00:21:10;;;;;;;;;;;12.90;99.90;;;;;;4956622;29;19910;-91
2022/09/23 00:23:36;;;;;;;;;;;12.90;99.90;;;;;;4956299;29;19910;-91
2022/09/23 00:26:03;;;;;;;;;;;12.90;99.90;;;;;;4940668;29;19906;-91
2022/09/23 00:28:29;;;;;;;;;;;12.90;99.90;;;;;;4940550;29;20356;-91
2022/09/23 00:30:55;;;;;;;;;;;12.90;99.90;;;;;;4940847;29;19906;-90
2022/09/23 00:33:21;;;;;;;;;;;12.80;99.90;;;;;;4945480;29;19906;-91
2022/09/23 00:35:48;;;;;;;;;;;12.80;99.90;;;;;;4961509;28;19969;-91
2022/09/23 00:38:14;;;;;;;;;;;12.80;99.90;;;;;;4955053;29;19902;-93
2022/09/23 00:40:43;;;;;;;;;;;12.70;99.90;;;;;;4980970;28;19952;-93
2022/09/23 00:43:11;;;;;;;;;;;12.70;99.90;;;;;;4980967;28;19918;-94
2022/09/23 00:45:38;;;;;;;;;;;12.70;99.90;;;;;;4965357;28;19926;-90
2022/09/23 00:48:04;;;;;;;;;;;12.70;99.90;;;;;;4941889;29;19922;-90
2022/09/23 00:50:35;;;;;;;;;;;12.60;99.90;;;;;;4957718;29;20356;-91
2022/09/23 00:53:05;;;;;;;;;;;12.60;99.90;;;;;;4955002;29;19906;-90
2022/09/23 00:55:38;;;;;;;;;;;12.50;99.90;;;;;;4958161;29;19949;-91
2022/09/23 00:58:06;;;;;;;;;;;12.50;99.90;;;;;;4955584;29;19981;-90
2022/09/23 01:00:32;;;;;;;;;;;12.50;99.90;;;;;;4957402;29;19914;-90
2022/09/23 01:02:59;;;;;;;;;;;12.40;99.90;;;;;;4941460;29;20347;-91
2022/09/23 01:05:25;;;;;;;;;;;12.40;99.90;;;;;;4958225;29;19950;-91
2022/09/23 01:07:52;;;;;;;;;;;12.30;99.90;;;;;;4940984;29;20151;-91
2022/09/23 01:10:18;;;;;;;;;;;12.40;99.90;;;;;;4942088;29;19917;-91
2022/09/23 01:12:44;;;;;;;;;;;12.40;99.90;;;;;;4941909;29;19989;-91
2022/09/23 01:15:12;;;;;;;;;;;12.40;99.90;;;;;;4957901;29;20338;-91
2022/09/23 01:17:56;;;;;;;;;;;12.40;99.90;;;;;;4957803;29;19933;-90
2022/09/23 01:20:44;;;;;;;;;;;12.40;99.90;;;;;;4957942;29;20423;-92
2022/09/23 01:23:27;;;;;;;;;;;12.50;99.90;;;;;;4959225;29;20380;-91
2022/09/23 01:26:12;;;;;;;;;;;12.50;99.90;;;;;;4957986;29;19907;-90
2022/09/23 01:28:37;;;;;;;;;;;12.50;99.90;;;;;;4957682;29;19949;-91
2022/09/23 01:31:23;;;;;;;;;;;12.50;99.90;;;;;;4958020;29;19917;-90
2022/09/23 01:33:50;;;;;;;;;;;12.40;99.90;;;;;;4958741;29;19907;-90
2022/09/23 01:36:17;;;;;;;;;;;12.40;99.90;;;;;;4958750;28;19924;-90
2022/09/23 01:38:57;;;;;;;;;;;12.30;99.90;;;;;;4960807;29;20284;-90
2022/09/23 01:41:26;;;;;;;;;;;12.30;99.90;;;;;;4961216;29;19917;-90
2022/09/23 01:44:10;;;;;;;;;;;12.20;99.90;;;;;;4960421;29;19910;-90
2022/09/23 01:46:51;;;;;;;;;;;12.20;99.90;;;;;;4955421;29;19974;-91
2022/09/23 01:49:29;;;;;;;;;;;12.10;99.90;;;;;;4975194;28;19910;-91
2022/09/23 01:52:15;;;;;;;;;;;12.10;99.90;;;;;;4957266;29;19918;-89
2022/09/23 01:55:00;;;;;;;;;;;12.10;99.90;;;;;;4965972;29;20018;-91
2022/09/23 01:57:34;;;;;;;;;;;12.00;99.90;;;;;;4936026;29;19941;-91
2022/09/23 02:00:21;;;;;;;;;;;12.00;99.90;;;;;;4944190;29;19915;-91
2022/09/23 02:02:58;;;;;;;;;;;12.00;99.90;;;;;;4943155;29;19914;-91
2022/09/23 02:05:27;;;;;;;;;;;12.00;99.90;;;;;;4943164;29;19958;-91
2022/09/23 02:08:02;;;;;;;;;;;12.00;99.90;;;;;;4941853;29;19907;-91
2022/09/23 02:10:36;;;;;;;;;;;12.00;99.90;;;;;;4942091;29;19910;-90
2022/09/23 02:13:05;;;;;;;;;;;11.90;99.90;;;;;;4957464;28;20004;-90
2022/09/23 02:15:34;;;;;;;;;;;11.90;99.90;;;;;;4941867;29;20268;-90
2022/09/23 02:18:02;;;;;;;;;;;12.00;99.90;;;;;;4941783;29;19930;-90
2022/09/23 02:20:31;;;;;;;;;;;12.00;99.90;;;;;;4941031;29;19910;-91
2022/09/23 02:23:15;;;;;;;;;;;11.90;99.90;;;;;;4940723;29;19907;-90
2022/09/23 02:26:13;;;;;;;;;;;11.90;99.90;;;;;;4941255;29;19929;-90
2022/09/23 02:28:48;;;;;;;;;;;11.90;99.90;;;;;;4879885;29;19918;-92
2022/09/23 02:31:22;;;;;;;;;;;11.80;99.90;;;;;;4879853;29;19956;-91
2022/09/23 02:33:59;;;;;;;;;;;11.80;99.90;;;;;;4880171;29;19912;-91
2022/09/23 02:36:36;;;;;;;;;;;11.80;99.90;;;;;;4880266;29;19915;-91
2022/09/23 02:39:04;;;;;;;;;;;11.80;99.90;;;;;;4880171;29;19908;-89
2022/09/23 02:41:35;;;;;;;;;;;11.80;99.90;;;;;;4880204;29;19935;-90
2022/09/23 02:44:06;;;;;;;;;;;11.80;99.90;;;;;;4879754;29;19915;-91
2022/09/23 02:46:32;;;;;;;;;;;11.80;99.90;;;;;;4879925;29;19919;-92
2022/09/23 02:48:59;;;;;;;;;;;11.80;99.90;;;;;;4879584;29;20010;-92
2022/09/23 02:51:27;;;;;;;;;;;11.80;99.90;;;;;;4879738;29;19945;-91
2022/09/23 02:53:56;;;;;;;;;;;11.80;99.90;;;;;;4879423;29;19908;-91
2022/09/23 02:56:23;;;;;;;;;;;11.90;99.90;;;;;;4863845;29;19924;-93
2022/09/23 02:58:50;;;;;;;;;;;11.90;99.90;;;;;;4879727;29;19915;-92
2022/09/23 03:01:32;;;;;;;;;;;12.00;99.90;;;;;;4879050;29;19907;-91
2022/09/23 03:04:03;;;;;;;;;;;12.00;99.90;;;;;;4908621;29;19906;-91
2022/09/23 03:06:31;;;;;;;;;;;12.00;99.90;;;;;;4956511;29;20269;-92
2022/09/23 03:09:00;;;;;;;;;;;12.00;99.90;;;;;;4939868;29;19911;-92
2022/09/23 03:11:26;;;;;;;;;;;12.00;99.90;;;;;;4939730;29;19906;-92
2022/09/23 03:14:07;;;;;;;;;;;12.00;99.90;;;;;;4939592;29;20009;-92
2022/09/23 03:16:38;;;;;;;;;;;12.10;99.90;;;;;;4955567;29;19918;-93
2022/09/23 03:19:04;;;;;;;;;;;12.10;99.90;;;;;;4956063;29;19910;-92
2022/09/23 03:21:56;;;;;;;;;;;12.10;99.90;;;;;;4955869;29;19957;-91
2022/09/23 03:24:22;;;;;;;;;;;12.10;99.90;;;;;;4918144;29;20009;-91
2022/09/23 03:26:48;;;;;;;;;;;12.10;99.90;;;;;;4940136;29;19961;-92
2022/09/23 03:29:15;;;;;;;;;;;12.10;99.90;;;;;;4945309;29;19899;-93
2022/09/23 03:31:41;;;;;;;;;;;12.10;99.90;;;;;;4960338;29;19942;-94
2022/09/23 03:34:17;;;;;;;;;;;12.10;99.90;;;;;;4945422;29;19918;-95
2022/09/23 03:37:02;;;;;;;;;;;12.10;99.90;;;;;;4940576;29;19921;-94
2022/09/23 03:39:30;;;;;;;;;;;12.10;99.90;;;;;;4956701;29;19937;-94
2022/09/23 03:41:58;;;;;;;;;;;12.10;99.90;;;;;;4955928;29;19973;-95
2022/09/23 03:44:24;;;;;;;;;;;12.00;99.90;;;;;;4939178;29;19915;-93
2022/09/23 03:46:49;;;;;;;;;;;12.00;99.90;;;;;;4939536;29;19910;-94
2022/09/23 03:49:23;;;;;;;;;;;12.00;99.90;;;;;;4939456;29;19994;-94
2022/09/23 03:51:49;;;;;;;;;;;12.00;99.90;;;;;;4945864;29;19914;-93
2022/09/23 03:54:15;;;;;;;;;;;12.00;99.90;;;;;;4945601;29;19913;-94
2022/09/23 03:56:40;;;;;;;;;;;12.00;99.90;;;;;;4955538;29;19919;-93
2022/09/23 03:59:06;;;;;;;;;;;12.00;99.90;;;;;;4938891;29;19906;-93
2022/09/23 04:01:31;;;;;;;;;;;12.00;99.90;;;;;;4939348;29;19913;-94
2022/09/23 04:03:57;;;;;;;;;;;12.00;99.90;;;;;;4939059;29;20443;-93
2022/09/23 04:06:22;;;;;;;;;;;12.00;99.90;;;;;;4938733;29;19907;-94
2022/09/23 04:08:48;;;;;;;;;;;12.00;99.90;;;;;;4955846;28;20009;-92
2022/09/23 04:11:13;;;;;;;;;;;12.00;99.90;;;;;;4954632;29;20375;-92
2022/09/23 04:13:39;;;;;;;;;;;12.00;99.90;;;;;;4954496;29;19914;-93
2022/09/23 04:16:05;;;;;;;;;;;12.00;99.90;;;;;;4954455;29;19915;-93
2022/09/23 04:18:30;;;;;;;;;;;12.00;99.90;;;;;;4954833;29;19938;-92
2022/09/23 04:20:57;;;;;;;;;;;12.00;99.90;;;;;;4954788;29;20000;-93
2022/09/23 04:23:24;;;;;;;;;;;12.00;99.90;;;;;;4954728;29;19951;-92
2022/09/23 04:25:49;;;;;;;;;;;12.00;99.90;;;;;;4954755;29;19997;-93
2022/09/23 04:28:15;;;;;;;;;;;12.00;99.90;;;;;;4954353;29;19946;-92
2022/09/23 04:30:42;;;;;;;;;;;12.00;99.90;;;;;;4954368;29;20249;-93
2022/09/23 04:33:09;;;;;;;;;;;12.00;99.90;;;;;;4954746;29;19973;-92
2022/09/23 04:35:36;;;;;;;;;;;11.90;99.90;;;;;;4954735;29;19959;-92
2022/09/23 04:38:02;;;;;;;;;;;11.90;99.90;;;;;;4954990;29;19910;-93
2022/09/23 04:40:27;;;;;;;;;;;11.90;99.90;;;;;;4954823;29;20001;-93
2022/09/23 04:42:53;;;;;;;;;;;11.80;99.90;;;;;;4954575;29;19918;-92
2022/09/23 04:45:18;;;;;;;;;;;11.80;99.90;;;;;;4954266;28;19981;-92
2022/09/23 04:47:44;;;;;;;;;;;11.80;99.90;;;;;;4954759;29;20379;-93
2022/09/23 04:50:10;;;;;;;;;;;11.80;99.90;;;;;;4954443;28;19910;-93
2022/09/23 04:52:35;;;;;;;;;;;11.70;99.90;;;;;;4955112;29;19906;-91
2022/09/23 04:55:01;;;;;;;;;;;11.70;99.90;;;;;;4955138;29;19961;-92
2022/09/23 04:57:28;;;;;;;;;;;11.60;99.90;;;;;;4954706;29;19916;-92
2022/09/23 04:59:56;;;;;;;;;;;11.60;99.90;;;;;;4954925;29;19913;-91
2022/09/23 05:02:22;;;;;;;;;;;11.60;99.90;;;;;;4954885;29;19993;-93
2022/09/23 05:04:48;;;;;;;;;;;11.50;99.90;;;;;;4955175;29;19956;-92
2022/09/23 05:07:17;;;;;;;;;;;11.40;99.90;;;;;;4940982;29;19911;-92
2022/09/23 05:09:43;;;;;;;;;;;11.40;99.90;;;;;;4967636;29;19906;-92
2022/09/23 05:12:09;;;;;;;;;;;11.30;99.90;;;;;;4954725;29;19936;-92
2022/09/23 05:14:34;;;;;;;;;;;11.30;99.90;;;;;;4954488;28;19917;-93
2022/09/23 05:17:00;;;;;;;;;;;11.20;99.90;;;;;;4954530;29;19915;-92
2022/09/23 05:19:26;;;;;;;;;;;11.20;99.90;;;;;;4954835;29;19921;-92
2022/09/23 05:21:51;;;;;;;;;;;11.20;99.90;;;;;;4954705;29;19993;-92
2022/09/23 05:24:18;;;;;;;;;;;11.20;99.90;;;;;;4957105;28;19981;-92
2022/09/23 05:26:46;;;;;;;;;;;11.10;99.90;;;;;;4958113;29;19910;-92
2022/09/23 05:29:11;;;;;;;;;;;11.10;99.90;;;;;;4957656;29;20374;-92
2022/09/23 05:31:37;;;;;;;;;;;11.00;99.90;;;;;;4957614;29;20008;-91
2022/09/23 05:34:03;;;;;;;;;;;11.00;99.90;;;;;;4957898;29;20336;-92
2022/09/23 05:36:30;;;;;;;;;;;10.90;99.90;;;;;;4957218;29;19977;-93
2022/09/23 05:38:56;;;;;;;;;;;10.90;99.90;;;;;;4957570;29;19906;-93
2022/09/23 05:41:22;;;;;;;;;;;10.80;99.90;;;;;;4957427;29;19910;-92
2022/09/23 05:43:49;;;;;;;;;;;10.80;99.90;;;;;;4957430;29;19942;-92
2022/09/23 05:46:16;;;;;;;;;;;10.80;99.90;;;;;;4957606;29;19914;-92
2022/09/23 05:48:44;;;;;;;;;;;10.70;99.90;;;;;;4957324;29;19906;-93
2022/09/23 05:51:13;;;;;;;;;;;10.70;99.90;;;;;;4957836;29;19910;-92
2022/09/23 05:53:42;;;;;;;;;;;10.60;99.90;;;;;;4957534;29;19976;-92
2022/09/23 05:56:08;;;;;;;;;;;10.60;99.90;;;;;;4957831;29;19997;-92
2022/09/23 05:58:33;;;;;;;;;;;10.60;99.90;;;;;;4957923;29;19997;-92
2022/09/23 06:00:59;;;;;;;;;;;10.50;99.90;;;;;;4957787;29;19914;-92
2022/09/23 06:03:24;;;;;;;;;;;10.40;99.90;;;;;;4957625;29;19906;-92
2022/09/23 06:05:57;;;;;;;;;;;10.30;99.90;;;;;;4957526;29;19929;-91
2022/09/23 06:08:22;;;;;;;;;;;10.30;99.90;;;;;;4957429;29;20005;-93
2022/09/23 06:10:48;;;;;;;;;;;10.20;99.90;;;;;;4957281;29;19910;-92
2022/09/23 06:13:17;;;;;;;;;;;10.20;99.90;;;;;;4957511;29;19910;-92
2022/09/23 06:15:43;;;;;;;;;;;10.10;99.90;;;;;;4940054;29;19914;-91
2022/09/23 06:18:09;;;;;;;;;;;10.10;99.90;;;;;;4940567;29;19922;-91
2022/09/23 06:20:35;;;;;;;;;;;10.10;99.90;;;;;;4950556;28;19907;-91
2022/09/23 06:23:04;;;;;;;;;;;10.00;99.90;;;;;;4943608;28;19917;-92
2022/09/23 06:25:33;;;;;;;;;;;10.00;99.90;;;;;;4945502;28;19911;-92
2022/09/23 06:27:59;;;;;;;;;;;9.90;99.90;;;;;;4956545;28;19910;-92
2022/09/23 06:30:25;;;;;;;;;;;10.00;99.90;;;;;;4971458;28;19910;-92
2022/09/23 06:32:52;;;;;;;;;;;9.90;99.90;;;;;;4980352;28;19897;-93
2022/09/23 06:35:28;;;;;;;;;;;9.90;99.90;;;;;;4973382;28;19926;-92
2022/09/23 06:37:54;;;;;;;;;;;9.80;99.90;;;;;;4979291;28;19903;-91
2022/09/23 06:40:21;;;;;;;;;;;9.80;99.90;;;;;;4977432;29;19933;-92
2022/09/23 06:42:46;;;;;;;;;;;9.80;99.90;;;;;;4964996;29;19907;-92
2022/09/23 06:45:14;;;;;;;;;;;9.80;99.90;;;;;;4959487;29;19985;-91
2022/09/23 06:47:43;;;;;;;;;;;9.70;99.90;;;;;;4958263;29;19937;-91
2022/09/23 06:50:09;;;;;;;;;;;9.70;99.90;;;;;;4957806;29;19912;-91
2022/09/23 06:52:35;;;;;;;;;;;9.70;99.90;;;;;;4957145;29;19906;-91
2022/09/23 06:55:00;;;;;;;;;;;9.70;99.90;;;;;;4957152;29;19911;-92
2022/09/23 06:57:29;;;;;;;;;;;9.70;99.90;;;;;;4956764;29;19914;-92
2022/09/23 06:59:57;;;;;;;;;;;9.60;99.90;;;;;;4956975;29;19906;-91
2022/09/23 07:02:22;;;;;;;;;;;9.60;99.90;;;;;;4957843;29;19929;-92
2022/09/23 07:04:48;;;;;;;;;;;9.60;99.90;;;;;;4957208;29;20368;-92
2022/09/23 07:07:15;;;;;;;;;;;9.60;99.90;;;;;;4956572;29;19953;-91
2022/09/23 07:09:40;;;;;;;;;;;9.50;99.90;;;;;;4956937;29;19906;-91
2022/09/23 07:12:07;;;;;;;;;;;9.60;99.90;;;;;;4957190;29;19949;-92
2022/09/23 07:14:32;;;;;;;;;;;9.50;99.90;;;;;;4955850;29;19910;-92
2022/09/23 07:16:58;;;;;;;;;;;9.50;99.90;;;;;;4940013;29;19925;-90
2022/09/23 07:19:25;;;;;;;;;;;9.50;99.90;;;;;;4940970;29;20372;-91
2022/09/23 07:21:50;;;;;;;;;;;9.50;99.90;;;;;;4957537;29;20360;-91
2022/09/23 07:24:16;;;;;;;;;;;9.50;99.90;;;;;;4947626;29;19983;-92
2022/09/23 07:26:42;;;;;;;;;;;9.50;99.90;;;;;;4959029;29;19911;-91
2022/09/23 07:29:11;;;;;;;;;;;9.50;99.90;;;;;;4956377;29;19911;-91
2022/09/23 07:31:36;;;;;;;;;;;9.60;99.90;;;;;;4958974;29;19906;-91
2022/09/23 07:34:02;;;;;;;;;;;9.60;99.90;;;;;;4956456;29;19917;-91
2022/09/23 07:36:31;;;;;;;;;;;9.70;99.90;;;;;;4939935;29;19930;-90
2022/09/23 07:38:59;;;;;;;;;;;9.70;99.90;;;;;;4939334;29;19938;-91
2022/09/23 07:41:27;;;;;;;;;;;9.80;99.90;;;;;;4955178;29;19907;-91
2022/09/23 07:43:57;;;;;;;;;;;9.90;99.90;;;;;;4939187;29;19917;-90
2022/09/23 07:46:24;;;;;;;;;;;10.00;99.90;;;;;;4954724;28;19910;-91
2022/09/23 07:48:51;;;;;;;;;;;10.10;99.90;;;;;;4935311;29;19917;-91
2022/09/23 07:51:27;;;;;;;;;;;10.10;99.90;;;;;;4953670;28;19914;-91
2022/09/23 07:53:53;;;;;;;;;;;10.30;99.90;;;;;;4958936;28;19911;-91
2022/09/23 07:56:20;;;;;;;;;;;10.30;99.90;;;;;;4954771;29;19918;-91
2022/09/23 07:58:58;;;;;;;;;;;10.40;99.90;;;;;;4955268;28;19965;-91
2022/09/23 08:01:28;;;;;;;;;;;10.40;99.90;;;;;;4936808;29;19910;-91
2022/09/23 08:03:55;;;;;;;;;;;10.50;99.90;;;;;;4936843;29;19906;-91
2022/09/23 08:06:20;;;;;;;;;;;10.60;99.90;;;;;;4936095;29;19945;-91
2022/09/23 08:08:46;;;;;;;;;;;10.70;99.90;;;;;;4934959;29;20324;-92
2022/09/23 08:11:13;;;;;;;;;;;10.80;99.90;;;;;;4937962;29;19922;-91
2022/09/23 08:13:38;;;;;;;;;;;10.80;99.90;;;;;;4938471;28;20017;-90
2022/09/23 08:16:04;;;;;;;;;;;10.80;99.90;;;;;;4953855;29;19977;-91
2022/09/23 08:18:30;;;;;;;;;;;10.90;99.90;;;;;;4955668;29;19910;-91
2022/09/23 08:20:58;;;;;;;;;;;11.00;99.90;;;;;;4955006;29;19907;-91
2022/09/23 08:23:24;;;;;;;;;;;11.10;99.90;;;;;;4961627;29;19917;-92
2022/09/23 08:26:00;;;;;;;;;;;11.10;99.90;;;;;;4955422;29;19917;-92
2022/09/23 08:28:26;;;;;;;;;;;11.20;99.90;;;;;;4955786;29;19911;-90
2022/09/23 08:31:09;;;;;;;;;;;11.30;99.90;;;;;;5059230;27;2108398;-91
2022/09/23 08:33:34;;;;;;;;;;;11.40;99.90;;;;;;5115668;28;19919;-92
2022/09/23 08:36:02;;;;;;;;;;;11.50;99.90;;;;;;5111416;28;20339;-92
2022/09/23 08:38:28;;;;;;;;;;;11.60;99.90;;;;;;5099582;28;19907;-91
2022/09/23 08:41:03;;;;;;;;;;;11.70;99.90;;;;;;5101948;28;19919;-92
2022/09/23 08:43:33;;;;;;;;;;;11.80;99.90;;;;;;5105729;28;19916;-91
2022/09/23 08:46:03;;;;;;;;;;;11.80;99.90;;;;;;5106035;28;19966;-91
2022/09/23 08:48:37;;;;;;;;;;;11.90;99.90;;;;;;5105689;28;19915;-91
2022/09/23 08:51:05;;;;;;;;;;;12.10;99.90;;;;;;5101434;28;20014;-92
2022/09/23 08:53:36;;;;;;;;;;;12.20;99.90;;;;;;5102662;28;19907;-92
2022/09/23 08:56:08;;;;;;;;;;;12.20;99.90;;;;;;5102118;28;20348;-90
2022/09/23 08:58:37;;;;;;;;;;;12.30;99.90;;;;;;5101281;28;19961;-90
2022/09/23 09:01:06;;;;;;;;;;;12.40;99.90;;;;;;5101702;28;19915;-90
2022/09/23 09:03:47;;;;;;;;;;;12.60;99.90;;;;;;5103503;28;19915;-93
2022/09/23 09:06:20;;;;;;;;;;;12.70;99.90;;;;;;5105554;28;19947;-93
2022/09/23 09:08:52;;;;;;;;;;;12.80;99.90;;;;;;5102273;28;19915;-92
2022/09/23 09:11:18;;;;;;;;;;;13.00;99.90;;;;;;5102359;28;19981;-91
2022/09/23 09:13:50;;;;;;;;;;;13.10;99.90;;;;;;5095300;28;19944;-90
2022/09/23 09:16:37;;;;;;;;;;;13.30;99.90;;;;;;5099985;28;19915;-93
2022/09/23 09:19:06;;;;;;;;;;;13.50;99.90;;;;;;5099786;28;19915;-93
2022/09/23 09:21:36;;;;;;;;;;;13.60;99.90;;;;;;5081256;28;19912;-91
2022/09/23 09:24:02;;;;;;;;;;;13.80;99.90;;;;;;5083153;28;19955;-91
2022/09/23 09:26:31;;;;;;;;;;;14.00;99.90;;;;;;5079579;28;19982;-92
2022/09/23 09:29:09;;;;;;;;;;;14.20;99.90;;;;;;5070958;28;19913;-94
2022/09/23 09:31:45;;;;;;;;;;;14.40;99.90;;;;;;5071632;28;19955;-93
2022/09/23 09:34:12;;;;;;;;;;;14.50;99.90;;;;;;5072264;28;19908;-92
2022/09/23 09:36:41;;;;;;;;;;;14.70;99.90;;;;;;5073949;28;19912;-92
2022/09/23 09:39:10;;;;;;;;;;;14.90;99.90;;;;;;5079129;28;19912;-90
2022/09/23 09:41:39;;;;;;;;;;;15.20;99.90;;;;;;5071000;28;20187;-90
2022/09/23 09:44:08;;;;;;;;;;;15.40;99.90;;;;;;5068027;28;19947;-92
2022/09/23 09:46:53;;;;;;;;;;;15.60;99.90;;;;;;5086331;28;19919;-91
2022/09/23 09:49:23;;;;;;;;;;;15.90;99.90;;;;;;5075117;28;19920;-92
2022/09/23 09:52:10;;;;;;;;;;;16.10;99.90;;;;;;5066360;28;19921;-91
2022/09/23 09:54:35;;;;;;;;;;;16.30;99.90;;;;;;5069434;28;20357;-92
2022/09/23 09:57:03;;;;;;;;;;;16.60;99.90;;;;;;5069767;28;19931;-91
2022/09/23 09:59:29;;;;;;;;;;;16.80;99.90;;;;;;5075710;28;19927;-89
2022/09/23 10:02:17;;;;;;;;;;;17.00;99.90;;;;;;5070065;28;19913;-92
2022/09/23 10:04:43;;;;;;;;;;;17.20;99.90;;;;;;5065601;28;19908;-93
2022/09/23 10:07:13;;;;;;;;;;;17.50;99.90;;;;;;5067086;28;19927;-93
2022/09/23 10:09:41;;;;;;;;;;;17.60;99.90;;;;;;5064660;28;19935;-92
2022/09/23 10:12:17;;;;;;;;;;;17.90;99.90;;;;;;5090306;28;19908;-95
2022/09/23 10:14:50;;;;;;;;;;;18.10;99.90;;;;;;5064704;28;19915;-94
2022/09/23 10:17:21;;;;;;;;;;;18.40;99.90;;;;;;5066247;28;19919;-92
2022/09/23 10:19:56;;;;;;;;;;;18.60;99.90;;;;;;5070017;28;20003;-94
2022/09/23 10:22:28;;;;;;;;;;;18.80;99.90;;;;;;5065595;28;19920;-94
2022/09/23 10:24:57;;;;;;;;;;;18.90;99.90;;;;;;5088980;28;19986;-93
2022/09/23 10:27:27;;;;;;;;;;;19.20;99.80;;;;;;5069167;28;19947;-93
2022/09/23 10:29:54;;;;;;;;;;;19.30;98.60;;;;;;5063747;28;19942;-94
2022/09/23 10:32:29;;;;;;;;;;;19.60;97.80;;;;;;5060851;28;19913;-93
2022/09/23 10:35:00;;;;;;;;;;;19.80;96.70;;;;;;5058813;28;19908;-93
2022/09/23 10:37:47;;;;;;;;;;;20.10;95.40;;;;;;5068094;28;19919;-92
2022/09/23 10:46:37;;;;;;;;;;;20.60;88.70;;;;;;5097113;28;19919;-93
2022/09/23 10:49:10;;;;;;;;;;;20.70;87.30;;;;;;5076796;28;20022;-93
2022/09/23 10:51:47;;;;;;;;;;;20.90;85.70;;;;;;5075913;28;19912;-92
2022/09/23 10:54:12;;;;;;;;;;;20.90;85.20;;;;;;5060536;28;19935;-90
2022/09/23 10:56:47;;;;;;;;;;;20.90;84.90;;;;;;5065516;28;19917;-91
2022/09/23 10:59:34;;;;;;;;;;;20.90;84.40;;;;;;5078109;28;19912;-93
2022/09/23 11:02:24;;;;;;;;;;;20.80;83.10;;;;;;5078379;28;19912;-92
2022/09/23 11:05:08;;;;;;;;;;;20.70;82.30;;;;;;5071299;28;19912;-93
2022/09/23 11:07:53;;;;;;;;;;;20.80;81.90;;;;;;5061555;28;19908;-91
2022/09/23 11:10:24;;;;;;;;;;;21.10;81.30;;;;;;5072574;28;20190;-91
2022/09/23 11:13:28;;;;;;;;;;;21.30;79.40;;;;;;5071158;28;19916;-92
2022/09/23 11:16:05;;;;;;;;;;;21.50;78.80;;;;;;4962875;28;19917;-92
2022/09/23 11:18:31;;;;;;;;;;;21.80;77.90;;;;;;4960857;28;20394;-90
2022/09/23 11:20:59;;;;;;;;;;;22.00;75.90;;;;;;4976277;28;19969;-91
2022/09/23 11:23:31;;;;;;;;;;;22.00;74.20;;;;;;4975450;28;19910;-91
2022/09/23 11:25:56;;;;;;;;;;;21.60;73.20;;;;;;4975115;28;19917;-91
2022/09/23 11:28:28;;;;;;;;;;;21.10;73.60;;;;;;4974501;28;19918;-92
2022/09/23 11:30:56;;;;;;;;;;;20.90;74.40;;;;;;4974193;28;19929;-91
2022/09/23 11:33:35;;;;;;;;;;;20.90;75.30;;;;;;4975681;28;19910;-91
2022/09/23 11:36:05;;;;;;;;;;;21.20;75.40;;;;;;4977787;28;19969;-91
2022/09/23 11:38:39;;;;;;;;;;;21.40;74.60;;;;;;4959190;28;19914;-92
2022/09/23 11:41:16;;;;;;;;;;;21.30;73.50;;;;;;4958903;28;19964;-92
2022/09/23 11:43:43;;;;;;;;;;;21.10;73.50;;;;;;4957973;28;19910;-92
2022/09/23 11:46:17;;;;;;;;;;;21.10;73.30;;;;;;4987658;28;19912;-92
2022/09/23 11:48:53;;;;;;;;;;;21.10;72.20;;;;;;5057028;28;19918;-92
2022/09/23 11:51:30;;;;;;;;;;;21.10;71.90;;;;;;5058665;28;19970;-90
2022/09/23 11:54:23;;;;;;;;;;;21.30;71.50;;;;;;5067678;28;20451;-92
2022/09/23 11:57:00;;;;;;;;;;;21.20;69.80;;;;;;5065815;28;19979;-91
2022/09/23 11:59:38;;;;;;;;;;;21.10;68.90;;;;;;5063407;28;20423;-92
2022/09/23 12:02:10;;;;;;;;;;;21.20;68.80;;;;;;5062939;28;19909;-91
2022/09/23 12:04:38;;;;;;;;;;;21.50;68.60;;;;;;5075504;28;19915;-91
2022/09/23 12:07:04;;;;;;;;;;;21.70;68.40;;;;;;5056825;28;19958;-92
2022/09/23 12:09:50;;;;;;;;;;;22.00;67.90;;;;;;5056916;28;19920;-92
2022/09/23 12:12:25;;;;;;;;;;;22.40;67.20;;;;;;5053703;28;20349;-91
2022/09/23 12:15:10;;;;;;;;;;;22.70;66.60;;;;;;5077956;28;19916;-90
2022/09/23 12:17:42;;;;;;;;;;;22.80;66.10;;;;;;5077235;28;19916;-91
2022/09/23 12:20:16;;;;;;;;;;;22.90;65.20;;;;;;5065367;28;19908;-91
2022/09/23 12:22:48;;;;;;;;;;;23.10;64.70;;;;;;5056332;28;19912;-93
2022/09/23 12:25:32;;;;;;;;;;;23.40;64.50;;;;;;5057590;28;19920;-91
2022/09/23 12:28:09;;;;;;;;;;;23.80;64.10;;;;;;5057262;28;19908;-90
2022/09/23 12:30:36;;;;;;;;;;;24.10;63.20;;;;;;5068839;28;19955;-93
2022/09/23 12:33:07;;;;;;;;;;;24.30;62.30;;;;;;5083440;28;19958;-91
2022/09/23 12:35:44;;;;;;;;;;;24.40;61.20;;;;;;5077934;28;19912;-92
2022/09/23 12:38:16;;;;;;;;;;;24.30;60.80;;;;;;5076816;28;19908;-92
2022/09/23 12:40:43;;;;;;;;;;;24.00;60.50;;;;;;5076728;28;20437;-92
2022/09/23 12:43:41;;;;;;;;;;;23.50;60.70;;;;;;5076543;28;20373;-92
2022/09/23 12:46:16;;;;;;;;;;;23.10;61.60;;;;;;5032093;28;19912;-92
2022/09/23 12:48:43;;;;;;;;;;;22.90;62.20;;;;;;5066293;28;19908;-94
2022/09/23 12:51:16;;;;;;;;;;;22.80;62.50;;;;;;5055480;28;20381;-92
2022/09/23 12:53:51;;;;;;;;;;;22.60;61.60;;;;;;5039992;28;20357;-92
2022/09/23 12:56:19;;;;;;;;;;;22.20;61.90;;;;;;5069039;28;20003;-93
2022/09/23 12:58:47;;;;;;;;;;;21.80;62.00;;;;;;5071102;28;20004;-93
2022/09/23 13:01:21;;;;;;;;;;;21.50;62.40;;;;;;5059471;28;19909;-93
2022/09/23 13:06:40;;;;;;;;;;;21.00;63.50;;;;;;5085423;28;19923;-94
2022/09/23 13:09:14;;;;;;;;;;;21.10;64.10;;;;;;5064675;28;19912;-92
2022/09/23 13:11:42;;;;;;;;;;;21.50;64.10;;;;;;5066367;28;19920;-94
2022/09/23 13:14:11;;;;;;;;;;;21.60;62.90;;;;;;5068966;28;19912;-93
2022/09/23 13:16:42;;;;;;;;;;;21.60;62.90;;;;;;5083183;28;20001;-94
2022/09/23 13:19:30;;;;;;;;;;;21.70;62.80;;;;;;5068240;28;19912;-93
2022/09/23 13:22:02;;;;;;;;;;;21.80;62.60;;;;;;5069928;28;19939;-94
2022/09/23 13:24:39;;;;;;;;;;;21.90;62.20;;;;;;5068649;28;19960;-95
2022/09/23 13:27:05;;;;;;;;;;;22.10;61.80;;;;;;5085810;28;19918;-94
2022/09/23 13:29:45;;;;;;;;;;;22.20;61.60;;;;;;5072923;28;19920;-93
2022/09/23 13:32:12;;;;;;;;;;;22.00;61.00;;;;;;5067646;28;19920;-93
2022/09/23 13:34:38;;;;;;;;;;;21.80;61.60;;;;;;5071910;28;19908;-94
2022/09/23 13:37:30;;;;;;;;;;;21.50;62.10;;;;;;5070667;28;19909;-92
2022/09/23 13:40:14;;;;;;;;;;;21.10;62.60;;;;;;5067665;28;19916;-92
2022/09/23 13:42:40;;;;;;;;;;;20.90;63.40;;;;;;5067488;28;19912;-94
2022/09/23 13:45:12;;;;;;;;;;;20.60;64.00;;;;;;5070791;28;19916;-94
2022/09/23 13:47:41;;;;;;;;;;;20.40;64.40;;;;;;5070000;28;19998;-93
2022/09/23 13:50:12;;;;;;;;;;;20.20;65.10;;;;;;5068759;28;19923;-94
2022/09/23 13:52:37;;;;;;;;;;;20.20;65.60;;;;;;5063906;28;20004;-92
2022/09/23 13:55:04;;;;;;;;;;;20.40;65.60;;;;;;5059223;28;19948;-94
2022/09/23 13:57:34;;;;;;;;;;;20.70;65.20;;;;;;5077075;28;19912;-92
2022/09/23 14:00:22;;;;;;;;;;;21.10;64.90;;;;;;5043210;28;19912;-93
2022/09/23 14:02:54;;;;;;;;;;;21.40;63.70;;;;;;5060910;28;19908;-93
2022/09/23 14:05:22;;;;;;;;;;;21.30;62.80;;;;;;5060092;28;19912;-94
2022/09/23 14:07:58;;;;;;;;;;;21.10;62.90;;;;;;5059224;28;19937;-94
2022/09/23 14:10:30;;;;;;;;;;;20.80;63.60;;;;;;5059882;28;19917;-94
2022/09/23 14:12:55;;;;;;;;;;;20.60;64.20;;;;;;5059375;28;19916;-94
2022/09/23 14:15:21;;;;;;;;;;;20.60;64.80;;;;;;5059422;28;20392;-94
2022/09/23 14:17:52;;;;;;;;;;;20.90;65.00;;;;;;5059383;28;20282;-91
2022/09/23 14:20:24;;;;;;;;;;;21.30;63.60;;;;;;5059205;28;19991;-92
2022/09/23 14:23:08;;;;;;;;;;;21.70;62.80;;;;;;5058948;28;19909;-92
2022/09/23 14:25:34;;;;;;;;;;;21.90;61.90;;;;;;5076648;28;19916;-90
2022/09/23 14:28:00;;;;;;;;;;;22.10;61.20;;;;;;5068847;28;19935;-88
2022/09/23 14:30:26;;;;;;;;;;;21.90;60.50;;;;;;5070498;28;19920;-89
2022/09/23 14:32:52;;;;;;;;;;;21.60;60.70;;;;;;5069981;28;20271;-88
2022/09/23 14:35:20;;;;;;;;;;;21.30;61.20;;;;;;5054167;28;19908;-88
2022/09/23 14:40:33;;;;;;;;;;;21.00;62.50;;;;;;5056071;28;20047;-88
2022/09/23 14:43:03;;;;;;;;;;;21.00;62.90;;;;;;5055199;28;19966;-88
2022/09/23 14:45:32;;;;;;;;;;;21.10;63.10;;;;;;5056691;28;19916;-90
2022/09/23 14:47:58;;;;;;;;;;;21.00;62.20;;;;;;5057666;28;20285;-90
2022/09/23 14:50:35;;;;;;;;;;;20.80;62.10;;;;;;5053868;28;19921;-90